Banak, Lakselv Banak Airport (ENNA)

NameLakselv Banak Airport
CityBanak
CountryNorway
ICAOENNA
IATALKL
Altitude8 m
CoordinatesGoogle Map
Live Air TrafficLiveATC.net
METARENNA 201450Z 18009KT 4700 -SN VV017 M02/M04 Q1000 RMK WIND 1800FT 27007KT
2019-03-20 14:50:00 Wind: South (180°) 4.63 m/s - Visibility: 4700 m - Weather: Light Snow - Temperature: -2 °C - Dew point: -4 °C - Humidity: 86.4% - Pressure: 1000 hPa
Statistics

The table below shows the detailed information of all flights to/from Banak, Lakselv Banak Airport (ENNA).

Ident Aircraft Coming fromFrom Going toTo Owner nameOwnerSpotted durationDurationDate
EI-FHU - B738 - Norwegian NAX8927 BOEING 737-800 B738 Banak, Norway (ENNA) ENNA
1715 km
Oslo, Norway (ENGM) ENGM
517 km
Norwegian Air International Limited Norwegian Air International Limited 00:43:22 00:43:22 Thu, 14 Mar 2019 01:05:48 +0000 14/3/2019 1:05 am
Thu, 14 Mar 2019 01:49:10 +0000 14/3/2019 1:49 am
D-AEAO - A306 - European Air Transport BCS6427 AIRBUS A-300B4-600 A306 Banak, Norway (ENNA) ENNA
1250 km
Oslo, Norway (ENGM) ENGM
18 km
Dhl Air Dhl Air 01:24:52 01:24:52 Fri, 15 Feb 2019 11:14:01 +0000 15/2/2019 11:14 am
Fri, 15 Feb 2019 12:38:53 +0000 15/2/2019 12:38 pm
D-AEAO - A306 - European Air Transport BCS6428 AIRBUS A-300B4-600 A306 Oslo, Norway (ENGM) ENGM
1040 km
Banak, Norway (ENNA) ENNA
232 km
Dhl Air Dhl Air 01:05:36 01:05:36 Fri, 15 Feb 2019 08:08:00 +0000 15/2/2019 8:08 am
Fri, 15 Feb 2019 09:13:36 +0000 15/2/2019 9:13 am